Great Ocean — 3FDA5 — position and weather

sailwx.info

Track history (hours):
 
Tides and Currents Weather Stations Pressure Air Temp Water Temp Dewpoint Dewpoint Depression Visibility Wind Speed Wind Dir Waves Ship Positions

Great Ocean

Last reported at 2016-Dec-18 12:13 UTC. Time now 2017-Jan-17 00:43 UTC.
Position N 01°58' E 102°15'.
Warning: this ship's position is 29 days out of date.

Length 180 m; draft 11.2 m.

Type: Cargo ship. MMSI: 371452000.

Date/timePositionNaut miles runAvg speedWind from/ knotsBaromVisibWave heightAir tempDewpointWater temp
2016-Dec-18 12:13N 01°58' E 102°15'913.4
2016-Dec-18 11:33N 01°54' E 102°23'1714.0
2016-Dec-18 10:21N 01°47' E 102°38'7912.7
2016-Dec-18 04:08N 01°11' E 103°49'814.5
2016-Dec-18 03:33N 01°14' E 103°56'5 4.1
2016-Dec-18 02:25N 01°17' E 103°60'0 0.0
2016-Dec-18 01:16N 01°17' E 103°60'0 0.0
2016-Dec-18 00:28N 01°17' E 103°60'0 0.0
2016-Dec-17 23:28N 01°17' E 103°60'0 0.0
2016-Dec-17 22:16N 01°17' E 103°60'0 0.1
2016-Dec-17 21:28N 01°17' E 103°60'0 0.1
2016-Dec-17 20:31N 01°17' E 103°60'0 0.0
2016-Dec-17 19:16N 01°17' E 103°60'0 0.0
2016-Dec-17 18:25N 01°17' E 103°60'0 0.0
2016-Dec-17 17:28N 01°17' E 103°60'0 0.1
2016-Dec-17 16:31N 01°17' E 103°60'  
2016-Dec-12 19:27N 21°58' E 118°37'1813.6
2016-Dec-12 18:05N 22°12' E 118°50'713.0
2016-Dec-12 17:31N 22°17' E 118°56'1313.0
2016-Dec-12 16:33N 22°26' E 119°05'2712.6
2016-Dec-12 14:24N 22°46' E 119°25'1112.8
2016-Dec-12 13:32N 22°55' E 119°33'7111.0
2016-Dec-12 07:06N 24°01' E 119°59'  
Track history (hours):
 
Tides and Currents Weather Stations Pressure Air Temp Water Temp Dewpoint Dewpoint Depression Visibility Wind Speed Wind Dir Waves Ship Positions

Great Ocean

Last reported at 2016-Dec-18 12:13 UTC. Time now 2017-Jan-17 00:43 UTC.
Position N 01°58' E 102°15'.
Warning: this ship's position is 29 days out of date.

Length 180 m; draft 11.2 m.

Type: Cargo ship. MMSI: 371452000.

Date/timePositionNaut miles runAvg speedWind from/ knotsBaromVisibWave heightAir tempDewpointWater temp
2016-Dec-18 12:13N 01°58' E 102°15'913.4
2016-Dec-18 11:33N 01°54' E 102°23'1714.0
2016-Dec-18 10:21N 01°47' E 102°38'7912.7
2016-Dec-18 04:08N 01°11' E 103°49'814.5
2016-Dec-18 03:33N 01°14' E 103°56'5 4.1
2016-Dec-18 02:25N 01°17' E 103°60'0 0.0
2016-Dec-18 01:16N 01°17' E 103°60'0 0.0
2016-Dec-18 00:28N 01°17' E 103°60'0 0.0
2016-Dec-17 23:28N 01°17' E 103°60'0 0.0
2016-Dec-17 22:16N 01°17' E 103°60'0 0.1
2016-Dec-17 21:28N 01°17' E 103°60'0 0.1
2016-Dec-17 20:31N 01°17' E 103°60'0 0.0
2016-Dec-17 19:16N 01°17' E 103°60'0 0.0
2016-Dec-17 18:25N 01°17' E 103°60'0 0.0
2016-Dec-17 17:28N 01°17' E 103°60'0 0.1
2016-Dec-17 16:31N 01°17' E 103°60'  
2016-Dec-12 19:27N 21°58' E 118°37'1813.6
2016-Dec-12 18:05N 22°12' E 118°50'713.0
2016-Dec-12 17:31N 22°17' E 118°56'1313.0
2016-Dec-12 16:33N 22°26' E 119°05'2712.6
2016-Dec-12 14:24N 22°46' E 119°25'1112.8
2016-Dec-12 13:32N 22°55' E 119°33'7111.0
2016-Dec-12 07:06N 24°01' E 119°59'  

Dump ship's entire track history